createdAt,value
2022-10-09T00:04:01.827Z,5.40
2022-10-09T00:09:09.683Z,8.93
2022-10-09T00:14:17.577Z,10.00
2022-10-09T00:19:25.533Z,8.57
2022-10-09T00:24:33.623Z,10.50
2022-10-09T00:29:42.173Z,12.33
2022-10-09T00:34:51.782Z,7.70
2022-10-09T00:39:59.640Z,5.30
2022-10-09T00:45:08.480Z,7.90
2022-10-09T00:50:19.507Z,6.93
2022-10-09T00:55:28.561Z,10.87
2022-10-09T01:00:36.443Z,6.03
2022-10-09T01:05:47.519Z,8.13
2022-10-09T01:10:59.011Z,4.40
2022-10-09T01:21:22.904Z,5.90
2022-10-09T01:26:34.025Z,6.93
2022-10-09T01:31:43.529Z,8.47
2022-10-09T01:36:51.998Z,6.27
2022-10-09T01:41:59.783Z,8.47
2022-10-09T01:47:07.703Z,5.37
2022-10-09T01:52:19.247Z,6.97
2022-10-09T01:57:30.854Z,8.83
2022-10-09T02:02:38.885Z,5.53
2022-10-09T02:07:46.799Z,12.20
2022-10-09T02:12:56.424Z,6.03
2022-10-09T02:18:06.906Z,4.80
2022-10-09T02:23:14.829Z,6.33
2022-10-09T02:28:22.841Z,8.07
2022-10-09T02:33:33.918Z,9.70
2022-10-09T02:38:42.242Z,9.07
2022-10-09T02:43:50.033Z,7.07
2022-10-09T02:48:57.886Z,5.43
2022-10-09T02:54:07.925Z,10.83
2022-10-09T02:59:15.759Z,8.30
2022-10-09T03:04:23.770Z,5.03
2022-10-09T03:09:33.876Z,8.13
2022-10-09T03:14:42.376Z,7.10
2022-10-09T03:19:50.300Z,4.83
2022-10-09T03:24:58.494Z,10.03
2022-10-09T03:30:07.135Z,6.53
2022-10-09T03:35:15.054Z,6.20
2022-10-09T03:40:22.912Z,4.77
2022-10-09T03:45:30.704Z,7.30
2022-10-09T03:50:40.662Z,5.90
2022-10-09T03:55:48.586Z,10.77
2022-10-09T04:00:56.616Z,6.67
2022-10-09T04:06:05.183Z,9.47
2022-10-09T04:11:13.207Z,5.70
2022-10-09T04:16:21.098Z,7.43
2022-10-09T04:21:29.668Z,9.57
2022-10-09T04:26:39.431Z,9.77
2022-10-09T04:31:47.329Z,3.67
2022-10-09T04:36:55.175Z,9.03
2022-10-09T04:42:03.652Z,9.10
2022-10-09T04:47:11.656Z,9.37
2022-10-09T04:52:19.544Z,6.23
2022-10-09T04:57:27.428Z,8.70
2022-10-09T05:02:35.465Z,9.27
2022-10-09T05:07:43.412Z,4.97
2022-10-09T05:12:51.554Z,9.53
2022-10-09T05:17:59.634Z,4.87
2022-10-09T05:23:07.590Z,4.90
2022-10-09T05:28:15.463Z,6.23
2022-10-09T05:33:23.607Z,8.87
2022-10-09T05:38:31.540Z,4.77
2022-10-09T05:43:41.553Z,9.97
2022-10-09T05:48:52.813Z,11.27
2022-10-09T05:54:02.265Z,6.13
2022-10-09T05:59:11.727Z,9.13
2022-10-09T06:04:21.880Z,8.13
2022-10-09T06:09:29.820Z,10.43
2022-10-09T06:14:37.878Z,8.43
2022-10-09T06:19:45.752Z,9.53
2022-10-09T06:24:53.558Z,20.60
2022-10-09T06:30:01.566Z,11.13
2022-10-09T06:35:10.887Z,8.30
2022-10-09T06:40:18.740Z,12.83
2022-10-09T06:45:26.631Z,13.83
2022-10-09T06:50:37.790Z,8.63
2022-10-09T06:55:48.744Z,9.73
2022-10-09T07:00:59.712Z,7.37
2022-10-09T07:06:11.014Z,9.03
2022-10-09T07:11:22.420Z,9.10
2022-10-09T07:16:32.974Z,10.37
2022-10-09T07:21:42.722Z,13.07
2022-10-09T07:26:50.606Z,9.20
2022-10-09T07:31:58.632Z,13.87
2022-10-09T07:37:06.596Z,9.17
2022-10-09T07:42:14.707Z,7.97
2022-10-09T07:47:22.603Z,10.83
2022-10-09T07:52:30.607Z,9.83
2022-10-09T07:57:39.102Z,10.63
2022-10-09T08:02:47.382Z,10.40
2022-10-09T08:07:55.727Z,10.13
2022-10-09T08:13:03.733Z,12.77
2022-10-09T08:18:12.290Z,6.23
2022-10-09T08:23:20.285Z,8.20
2022-10-09T08:33:26.178Z,9.20
2022-10-09T08:38:46.678Z,9.27
2022-10-09T08:43:46.202Z,6.07
2022-10-09T08:48:55.366Z,7.27
2022-10-09T08:54:07.264Z,5.40
2022-10-09T08:59:15.807Z,6.43
2022-10-09T09:04:27.183Z,10.13
2022-10-09T09:09:38.523Z,9.67
2022-10-09T09:14:49.663Z,8.53
2022-10-09T09:20:00.684Z,6.00
2022-10-09T09:25:13.723Z,5.67
2022-10-09T09:30:25.037Z,11.23
2022-10-09T09:35:36.096Z,7.67
2022-10-09T09:40:46.987Z,10.07
2022-10-09T09:45:56.382Z,4.97
2022-10-09T09:51:26.896Z,7.80
2022-10-09T09:56:14.634Z,3.17
2022-10-09T10:06:40.077Z,6.80
2022-10-09T10:17:03.189Z,1.57
2022-10-09T10:22:14.148Z,6.93
2022-10-09T10:27:25.784Z,9.17
2022-10-09T10:37:53.594Z,3.97
2022-10-09T10:43:04.586Z,6.53
2022-10-09T10:48:17.010Z,3.63
2022-10-09T10:53:30.835Z,5.67
2022-10-09T10:58:41.737Z,5.17
2022-10-09T11:03:52.684Z,4.87
2022-10-09T11:09:04.052Z,3.93
2022-10-09T11:14:19.903Z,5.60
2022-10-09T11:19:28.174Z,5.53
2022-10-09T11:24:39.144Z,6.60
2022-10-09T11:29:49.695Z,2.93
2022-10-09T11:35:00.909Z,3.17
2022-10-09T11:40:12.405Z,4.70
2022-10-09T11:50:36.990Z,1.90
2022-10-09T11:55:44.914Z,4.00
2022-10-09T12:00:55.165Z,4.23
2022-10-09T12:06:06.349Z,4.37
2022-10-09T12:11:17.003Z,4.13
2022-10-09T12:16:28.008Z,2.80
2022-10-09T12:21:39.072Z,3.60
2022-10-09T12:26:48.719Z,3.07
2022-10-09T12:32:00.336Z,2.63
2022-10-09T12:37:12.256Z,5.50
2022-10-09T12:42:23.103Z,4.17
2022-10-09T12:47:31.996Z,4.20
2022-10-09T12:52:43.712Z,3.53
2022-10-09T12:57:52.041Z,3.40
2022-10-09T13:03:01.183Z,3.37
2022-10-09T13:08:13.021Z,6.03
2022-10-09T13:13:24.487Z,7.70
2022-10-09T13:18:33.399Z,11.40
2022-10-09T13:23:41.475Z,4.40
2022-10-09T13:28:49.607Z,7.77
2022-10-09T13:33:57.588Z,4.27
2022-10-09T13:39:06.384Z,0.73
2022-10-09T13:44:14.232Z,4.23
2022-10-09T13:49:22.664Z,3.63
2022-10-09T13:54:31.975Z,2.70
2022-10-09T13:59:40.250Z,1.97
2022-10-09T14:04:49.680Z,1.80
2022-10-09T14:09:57.724Z,2.27
2022-10-09T14:15:05.816Z,5.87
2022-10-09T14:20:14.180Z,4.13
2022-10-09T14:25:22.362Z,4.57
2022-10-09T14:30:31.389Z,7.43
2022-10-09T14:35:39.834Z,1.40
2022-10-09T14:40:47.899Z,5.80
2022-10-09T14:45:58.993Z,1.87
2022-10-09T14:51:09.047Z,5.30
2022-10-09T14:56:19.583Z,6.60
2022-10-09T15:01:27.443Z,6.80
2022-10-09T15:06:35.747Z,6.77
2022-10-09T15:11:44.444Z,3.43
2022-10-09T15:16:52.516Z,5.00
2022-10-09T15:22:01.650Z,4.50
2022-10-09T15:27:09.593Z,7.13
2022-10-09T15:32:17.587Z,5.23
2022-10-09T15:37:25.993Z,4.70
2022-10-09T15:42:35.898Z,9.63
2022-10-09T15:47:51.492Z,14.37
2022-10-09T15:52:55.669Z,13.50
2022-10-09T15:58:03.761Z,13.30
2022-10-09T16:03:12.870Z,9.10
2022-10-09T16:08:21.527Z,6.77
2022-10-09T16:13:30.595Z,7.00
2022-10-09T16:18:38.682Z,8.87
2022-10-09T16:23:48.156Z,5.87
2022-10-09T16:28:56.472Z,6.43
2022-10-09T16:34:05.735Z,4.87
2022-10-09T16:39:13.756Z,7.00
2022-10-09T16:44:21.924Z,10.70
2022-10-09T16:49:29.953Z,14.93
2022-10-09T16:54:39.605Z,18.30
2022-10-09T16:59:48.526Z,14.83
2022-10-09T17:04:57.239Z,8.47
2022-10-09T17:10:06.074Z,12.97
2022-10-09T17:15:14.124Z,11.13
2022-10-09T17:20:22.751Z,12.10
2022-10-09T17:25:30.652Z,22.27
2022-10-09T17:30:41.715Z,14.10
2022-10-09T17:35:50.942Z,18.57
2022-10-09T17:40:59.101Z,20.27
2022-10-09T17:46:09.245Z,20.03
2022-10-09T17:51:20.056Z,29.93
2022-10-09T17:56:30.632Z,33.40
2022-10-09T18:01:41.358Z,33.63
2022-10-09T18:06:49.448Z,37.93
2022-10-09T18:11:57.795Z,24.47
2022-10-09T18:17:05.994Z,16.43
2022-10-09T18:22:14.518Z,24.37
2022-10-09T18:27:24.209Z,20.23
2022-10-09T18:32:32.436Z,18.37
2022-10-09T18:37:42.684Z,22.07
2022-10-09T18:42:52.511Z,20.43
2022-10-09T18:48:01.766Z,20.83
2022-10-09T18:53:11.077Z,20.67
2022-10-09T18:58:21.626Z,19.27
2022-10-09T19:03:29.938Z,23.63
2022-10-09T19:08:39.624Z,30.93
2022-10-09T19:13:48.208Z,32.23
2022-10-09T19:18:59.581Z,32.23
2022-10-09T19:24:07.932Z,30.33
2022-10-09T19:29:17.061Z,31.10
2022-10-09T19:34:25.269Z,28.90
2022-10-09T19:39:33.798Z,26.53
2022-10-09T19:44:44.278Z,27.00
2022-10-09T19:49:52.224Z,26.53
2022-10-09T19:55:00.387Z,21.13
2022-10-09T20:00:10.522Z,25.70
2022-10-09T20:05:18.598Z,18.67
2022-10-09T20:10:28.970Z,20.03
2022-10-09T20:15:40.952Z,22.07
2022-10-09T20:20:50.638Z,20.57
2022-10-09T20:26:01.122Z,22.37
2022-10-09T20:31:09.997Z,19.13
2022-10-09T20:36:20.513Z,15.57
2022-10-09T20:41:29.223Z,16.60
2022-10-09T20:46:38.676Z,21.83
2022-10-09T20:51:46.788Z,20.97
2022-10-09T20:56:54.772Z,21.23
2022-10-09T21:02:03.315Z,18.50
2022-10-09T21:07:11.367Z,19.50
2022-10-09T21:12:19.832Z,18.40
2022-10-09T21:17:28.159Z,24.23
2022-10-09T21:22:35.978Z,22.67
2022-10-09T21:27:43.911Z,24.90
2022-10-09T21:32:52.197Z,16.70
2022-10-09T21:38:00.466Z,19.53
2022-10-09T21:43:08.663Z,22.10
2022-10-09T21:48:17.147Z,16.23
2022-10-09T21:53:25.350Z,19.90
2022-10-09T21:58:33.356Z,17.23
2022-10-09T22:03:42.018Z,14.10
2022-10-09T22:08:49.840Z,16.80
2022-10-09T22:13:57.952Z,15.30
2022-10-09T22:19:06.360Z,13.53
2022-10-09T22:24:15.296Z,18.07
2022-10-09T22:29:26.237Z,13.80
2022-10-09T22:34:34.112Z,10.63
2022-10-09T22:39:42.031Z,16.53
2022-10-09T22:44:49.991Z,15.40
2022-10-09T22:49:57.916Z,13.43
2022-10-09T22:55:06.110Z,15.20
2022-10-09T23:00:14.633Z,12.23
2022-10-09T23:05:24.339Z,13.27
2022-10-09T23:10:32.178Z,12.10
2022-10-09T23:15:40.082Z,17.77
2022-10-09T23:20:47.888Z,12.50
2022-10-09T23:25:55.727Z,16.97
2022-10-09T23:31:04.757Z,15.23
2022-10-09T23:36:14.332Z,16.43
2022-10-09T23:41:23.964Z,12.47
2022-10-09T23:46:34.460Z,15.47
2022-10-09T23:51:42.805Z,9.73
2022-10-09T23:56:51.759Z,12.93
